New Mingzhou66 — VRQE8 — position and weather

sailwx.info

Track history (hours):
 
Tides and Currents Weather Stations Pressure Air Temp Water Temp Dewpoint Dewpoint Depression Visibility Wind Speed Wind Dir Waves Ship Positions

New Mingzhou66

Last reported at 2018-Jun-23 04:01 UTC. Time now 2018-Jun-23 08:05 UTC.
Position N 30°29' E 121°43'.

Length 148 m; draft 6.8 m.

Type: Ship (hazmat cat A). MMSI: 477439900.

Date/timePositionNaut miles runAvg speedWind from/ knotsBaromVisibWave heightAir tempDewpointWater temp
2018-Jun-23 04:01N 30°29' E 121°43'1 0.1
2018-Jun-22 02:05N 30°30' E 121°43'113.5
2018-Jun-22 02:00N 30°30' E 121°44'1013.0
2018-Jun-22 01:12N 30°31' E 121°56'312.9
2018-Jun-22 00:58N 30°31' E 121°59'6214.8
2018-Jun-21 20:47N 30°49' E 123°08'59914.5
2018-Jun-20 03:35N 34°25' E 134°12'116.4
2018-Jun-20 03:30N 34°25' E 134°13'815.5
2018-Jun-20 02:58N 34°25' E 134°23'715.7
2018-Jun-20 02:30N 34°28' E 134°31'815.5
2018-Jun-20 02:00N 34°31' E 134°40'815.4
2018-Jun-20 01:30N 34°34' E 134°49'815.1
2018-Jun-20 01:00N 34°37' E 134°57'612.4
2018-Jun-20 00:30N 34°35' E 135°04'613.1
2018-Jun-20 00:00N 34°29' E 135°03'815.4
2018-Jun-19 23:30N 34°22' E 135°01'713.7
2018-Jun-19 23:01N 34°15' E 134°59'815.7
2018-Jun-19 22:30N 34°07' E 134°59'815.7
2018-Jun-19 22:00N 33°59' E 134°60'816.2
2018-Jun-19 21:31N 33°51' E 134°60'816.2
2018-Jun-19 21:00N 33°45' E 135°05'816.2
2018-Jun-19 20:30N 33°39' E 135°12'23014.6
2018-Jun-19 04:48N 35°00' E 139°32'515.8
2018-Jun-19 04:29N 35°03' E 139°37'816.1
2018-Jun-19 04:00N 35°09' E 139°44'713.7
2018-Jun-19 03:28N 35°16' E 139°46'612.8
2018-Jun-19 03:00N 35°21' E 139°42'612.9
2018-Jun-19 02:30N 35°28' E 139°42'0 0.9
2018-Jun-19 02:00N 35°28' E 139°42'0 0.0
2018-Jun-19 01:30N 35°28' E 139°42'0 0.0
2018-Jun-19 01:00N 35°28' E 139°42'0 0.0
2018-Jun-19 00:30N 35°28' E 139°42'0 0.0
2018-Jun-19 00:00N 35°28' E 139°42'0 0.0
2018-Jun-18 23:30N 35°28' E 139°42'0 0.0
2018-Jun-18 23:00N 35°28' E 139°42'0 0.0
2018-Jun-18 22:30N 35°28' E 139°42'1 2.9
2018-Jun-18 22:00N 35°27' E 139°43'713.2
2018-Jun-18 21:30N 35°29' E 139°51'612.6
2018-Jun-18 21:00N 35°35' E 139°47'2 4.4
2018-Jun-18 20:30N 35°37' E 139°46'0 0.0
2018-Jun-18 20:00N 35°37' E 139°46'0 0.0
2018-Jun-18 19:25N 35°37' E 139°46'0 0.0
2018-Jun-18 18:43N 35°37' E 139°46'0 0.0
2018-Jun-18 18:25N 35°37' E 139°46'0 0.0
2018-Jun-18 17:55N 35°37' E 139°46'0 0.0
2018-Jun-18 17:25N 35°37' E 139°46'0 0.0
2018-Jun-18 16:55N 35°37' E 139°46'0 0.0
2018-Jun-18 16:25N 35°37' E 139°46'0 0.0
2018-Jun-18 14:55N 35°37' E 139°46'0 0.0
2018-Jun-18 14:16N 35°37' E 139°46'0 0.0
2018-Jun-18 13:52N 35°37' E 139°46'0 0.0
2018-Jun-18 13:28N 35°37' E 139°46'0 0.0
2018-Jun-18 12:58N 35°37' E 139°46'0 0.0
2018-Jun-18 12:22N 35°37' E 139°46'0 0.0
2018-Jun-18 11:52N 35°37' E 139°46'0 0.0
2018-Jun-18 11:30N 35°37' E 139°46'0 0.4
2018-Jun-18 10:58N 35°37' E 139°46'3 6.8
2018-Jun-18 10:30N 35°34' E 139°49'2 3.4
2018-Jun-18 10:00N 35°34' E 139°51'0 0.3
2018-Jun-18 09:30N 35°34' E 139°50'0 0.1
2018-Jun-18 08:59N 35°34' E 139°50'0 0.0
2018-Jun-18 08:29N 35°34' E 139°50'0 0.0
2018-Jun-18 07:59N 35°34' E 139°50'0 0.0
2018-Jun-18 07:29N 35°34' E 139°50'0 0.0
2018-Jun-18 06:59N 35°34' E 139°50'0 0.1
2018-Jun-18 06:20N 35°34' E 139°50'0 0.1
2018-Jun-18 05:57N 35°34' E 139°50'3 6.0
2018-Jun-18 05:30N 35°32' E 139°52'713.4
2018-Jun-18 05:00N 35°26' E 139°48'713.1
2018-Jun-18 04:30N 35°20' E 139°44'611.6
2018-Jun-18 04:01N 35°15' E 139°47'713.3
2018-Jun-18 03:30N 35°08' E 139°46'815.2
2018-Jun-18 02:58N 35°02' E 139°40'241 7.2
2018-Jun-16 17:42N 33°48' E 135°02'315.4
2018-Jun-16 17:29N 33°51' E 134°60'715.5
2018-Jun-16 17:01N 33°58' E 134°58'815.4
2018-Jun-16 16:31N 34°06' E 134°58'815.4
2018-Jun-16 16:00N 34°14' E 134°58'714.3
2018-Jun-16 15:31N 34°21' E 134°60'714.4
2018-Jun-16 15:00N 34°26' E 135°06'815.5
2018-Jun-16 14:30N 34°32' E 135°12'612.8
2018-Jun-16 14:01N 34°37' E 135°16'2 4.5
2018-Jun-16 13:30N 34°39' E 135°16'1 2.9
2018-Jun-16 13:01N 34°41' E 135°16'0 0.0
2018-Jun-16 12:26N 34°41' E 135°16'0 0.0
2018-Jun-16 11:59N 34°41' E 135°16'0 0.0
2018-Jun-16 11:26N 34°41' E 135°16'0 0.0
2018-Jun-16 10:50N 34°41' E 135°16'0 0.0
2018-Jun-16 10:30N 34°41' E 135°16'0 0.5
2018-Jun-16 10:00N 34°41' E 135°16'2 3.0
2018-Jun-16 09:30N 34°39' E 135°16'510.5
2018-Jun-16 09:00N 34°39' E 135°22'3 6.2
2018-Jun-16 08:30N 34°39' E 135°26'0 0.0
2018-Jun-16 07:54N 34°39' E 135°26'0 0.0
2018-Jun-16 07:24N 34°39' E 135°26'0 0.0
2018-Jun-16 07:00N 34°39' E 135°26'0 0.0
2018-Jun-16 06:24N 34°39' E 135°26'0 0.0
2018-Jun-16 06:00N 34°39' E 135°26'0 0.0
2018-Jun-16 05:30N 34°39' E 135°26'0 0.0
2018-Jun-16 05:00N 34°39' E 135°26'0 0.0
2018-Jun-16 04:24N 34°39' E 135°26'0 0.0
2018-Jun-16 03:36N 34°39' E 135°26'0 0.1
2018-Jun-16 03:30N 34°39' E 135°26'0 0.0
2018-Jun-16 03:00N 34°39' E 135°26'0 0.0
2018-Jun-16 02:12N 34°39' E 135°26'0 0.0
2018-Jun-16 01:54N 34°39' E 135°26'0 0.0
2018-Jun-16 01:24N 34°39' E 135°26'0 0.0
2018-Jun-16 01:00N 34°39' E 135°26'0 0.0
2018-Jun-16 00:30N 34°39' E 135°26'0 0.0
2018-Jun-16 00:00N 34°39' E 135°26'0 0.0
2018-Jun-15 23:30N 34°39' E 135°26'0 0.0
2018-Jun-15 23:00N 34°39' E 135°26'0 0.0
2018-Jun-15 22:30N 34°39' E 135°26'1 3.0
2018-Jun-15 22:00N 34°39' E 135°24'3 4.1
2018-Jun-15 21:22N 34°37' E 135°22'0 0.1
2018-Jun-15 20:58N 34°37' E 135°22'0 0.0
2018-Jun-15 20:22N 34°37' E 135°22'0 0.0
2018-Jun-15 19:46N 34°37' E 135°22'0 0.0
2018-Jun-15 19:28N 34°37' E 135°22'0 0.0
2018-Jun-15 18:52N 34°37' E 135°22'0 0.0
2018-Jun-15 17:43N 34°37' E 135°22'0 0.0
2018-Jun-15 17:28N 34°37' E 135°22'0 0.0
2018-Jun-15 16:58N 34°37' E 135°22'0 0.1
2018-Jun-15 16:28N 34°37' E 135°22'0 0.0
2018-Jun-15 15:52N 34°37' E 135°22'0 0.0
2018-Jun-15 15:28N 34°37' E 135°22'0 0.1
2018-Jun-15 14:50N 34°37' E 135°22'1 3.0
2018-Jun-15 14:30N 34°36' E 135°21'612.0
2018-Jun-15 14:00N 34°32' E 135°15'815.4
2018-Jun-15 13:30N 34°27' E 135°09'816.0
2018-Jun-15 13:00N 34°21' E 135°02'816.3
2018-Jun-15 12:30N 34°13' E 134°59'815.5
2018-Jun-15 12:00N 34°06' E 134°57'816.0
2018-Jun-15 11:30N 33°58' E 134°55'815.9
2018-Jun-15 11:00N 33°50' E 134°54'915.5
2018-Jun-15 10:25N 33°43' E 134°47'68314.6
2018-Jun-13 11:32N 30°25' E 121°55'514.6
2018-Jun-13 11:10N 30°22' E 121°50'  
Track history (hours):
 
Tides and Currents Weather Stations Pressure Air Temp Water Temp Dewpoint Dewpoint Depression Visibility Wind Speed Wind Dir Waves Ship Positions

New Mingzhou66

Last reported at 2018-Jun-23 04:01 UTC. Time now 2018-Jun-23 08:05 UTC.
Position N 30°29' E 121°43'.

Length 148 m; draft 6.8 m.

Type: Ship (hazmat cat A). MMSI: 477439900.

Date/timePositionNaut miles runAvg speedWind from/ knotsBaromVisibWave heightAir tempDewpointWater temp
2018-Jun-23 04:01N 30°29' E 121°43'1 0.1
2018-Jun-22 02:05N 30°30' E 121°43'113.5
2018-Jun-22 02:00N 30°30' E 121°44'1013.0
2018-Jun-22 01:12N 30°31' E 121°56'312.9
2018-Jun-22 00:58N 30°31' E 121°59'6214.8
2018-Jun-21 20:47N 30°49' E 123°08'59914.5
2018-Jun-20 03:35N 34°25' E 134°12'116.4
2018-Jun-20 03:30N 34°25' E 134°13'815.5
2018-Jun-20 02:58N 34°25' E 134°23'715.7
2018-Jun-20 02:30N 34°28' E 134°31'815.5
2018-Jun-20 02:00N 34°31' E 134°40'815.4
2018-Jun-20 01:30N 34°34' E 134°49'815.1
2018-Jun-20 01:00N 34°37' E 134°57'612.4
2018-Jun-20 00:30N 34°35' E 135°04'613.1
2018-Jun-20 00:00N 34°29' E 135°03'815.4
2018-Jun-19 23:30N 34°22' E 135°01'713.7
2018-Jun-19 23:01N 34°15' E 134°59'815.7
2018-Jun-19 22:30N 34°07' E 134°59'815.7
2018-Jun-19 22:00N 33°59' E 134°60'816.2
2018-Jun-19 21:31N 33°51' E 134°60'816.2
2018-Jun-19 21:00N 33°45' E 135°05'816.2
2018-Jun-19 20:30N 33°39' E 135°12'23014.6
2018-Jun-19 04:48N 35°00' E 139°32'515.8
2018-Jun-19 04:29N 35°03' E 139°37'816.1
2018-Jun-19 04:00N 35°09' E 139°44'713.7
2018-Jun-19 03:28N 35°16' E 139°46'612.8
2018-Jun-19 03:00N 35°21' E 139°42'612.9
2018-Jun-19 02:30N 35°28' E 139°42'0 0.9
2018-Jun-19 02:00N 35°28' E 139°42'0 0.0
2018-Jun-19 01:30N 35°28' E 139°42'0 0.0
2018-Jun-19 01:00N 35°28' E 139°42'0 0.0
2018-Jun-19 00:30N 35°28' E 139°42'0 0.0
2018-Jun-19 00:00N 35°28' E 139°42'0 0.0
2018-Jun-18 23:30N 35°28' E 139°42'0 0.0
2018-Jun-18 23:00N 35°28' E 139°42'0 0.0
2018-Jun-18 22:30N 35°28' E 139°42'1 2.9
2018-Jun-18 22:00N 35°27' E 139°43'713.2
2018-Jun-18 21:30N 35°29' E 139°51'612.6
2018-Jun-18 21:00N 35°35' E 139°47'2 4.4
2018-Jun-18 20:30N 35°37' E 139°46'0 0.0
2018-Jun-18 20:00N 35°37' E 139°46'0 0.0
2018-Jun-18 19:25N 35°37' E 139°46'0 0.0
2018-Jun-18 18:43N 35°37' E 139°46'0 0.0
2018-Jun-18 18:25N 35°37' E 139°46'0 0.0
2018-Jun-18 17:55N 35°37' E 139°46'0 0.0
2018-Jun-18 17:25N 35°37' E 139°46'0 0.0
2018-Jun-18 16:55N 35°37' E 139°46'0 0.0
2018-Jun-18 16:25N 35°37' E 139°46'0 0.0
2018-Jun-18 14:55N 35°37' E 139°46'0 0.0
2018-Jun-18 14:16N 35°37' E 139°46'0 0.0
2018-Jun-18 13:52N 35°37' E 139°46'0 0.0
2018-Jun-18 13:28N 35°37' E 139°46'0 0.0
2018-Jun-18 12:58N 35°37' E 139°46'0 0.0
2018-Jun-18 12:22N 35°37' E 139°46'0 0.0
2018-Jun-18 11:52N 35°37' E 139°46'0 0.0
2018-Jun-18 11:30N 35°37' E 139°46'0 0.4
2018-Jun-18 10:58N 35°37' E 139°46'3 6.8
2018-Jun-18 10:30N 35°34' E 139°49'2 3.4
2018-Jun-18 10:00N 35°34' E 139°51'0 0.3
2018-Jun-18 09:30N 35°34' E 139°50'0 0.1
2018-Jun-18 08:59N 35°34' E 139°50'0 0.0
2018-Jun-18 08:29N 35°34' E 139°50'0 0.0
2018-Jun-18 07:59N 35°34' E 139°50'0 0.0
2018-Jun-18 07:29N 35°34' E 139°50'0 0.0
2018-Jun-18 06:59N 35°34' E 139°50'0 0.1
2018-Jun-18 06:20N 35°34' E 139°50'0 0.1
2018-Jun-18 05:57N 35°34' E 139°50'3 6.0
2018-Jun-18 05:30N 35°32' E 139°52'713.4
2018-Jun-18 05:00N 35°26' E 139°48'713.1
2018-Jun-18 04:30N 35°20' E 139°44'611.6
2018-Jun-18 04:01N 35°15' E 139°47'713.3
2018-Jun-18 03:30N 35°08' E 139°46'815.2
2018-Jun-18 02:58N 35°02' E 139°40'241 7.2
2018-Jun-16 17:42N 33°48' E 135°02'315.4
2018-Jun-16 17:29N 33°51' E 134°60'715.5
2018-Jun-16 17:01N 33°58' E 134°58'815.4
2018-Jun-16 16:31N 34°06' E 134°58'815.4
2018-Jun-16 16:00N 34°14' E 134°58'714.3
2018-Jun-16 15:31N 34°21' E 134°60'714.4
2018-Jun-16 15:00N 34°26' E 135°06'815.5
2018-Jun-16 14:30N 34°32' E 135°12'612.8
2018-Jun-16 14:01N 34°37' E 135°16'2 4.5
2018-Jun-16 13:30N 34°39' E 135°16'1 2.9
2018-Jun-16 13:01N 34°41' E 135°16'0 0.0
2018-Jun-16 12:26N 34°41' E 135°16'0 0.0
2018-Jun-16 11:59N 34°41' E 135°16'0 0.0
2018-Jun-16 11:26N 34°41' E 135°16'0 0.0
2018-Jun-16 10:50N 34°41' E 135°16'0 0.0
2018-Jun-16 10:30N 34°41' E 135°16'0 0.5
2018-Jun-16 10:00N 34°41' E 135°16'2 3.0
2018-Jun-16 09:30N 34°39' E 135°16'510.5
2018-Jun-16 09:00N 34°39' E 135°22'3 6.2
2018-Jun-16 08:30N 34°39' E 135°26'0 0.0
2018-Jun-16 07:54N 34°39' E 135°26'0 0.0
2018-Jun-16 07:24N 34°39' E 135°26'0 0.0
2018-Jun-16 07:00N 34°39' E 135°26'0 0.0
2018-Jun-16 06:24N 34°39' E 135°26'0 0.0
2018-Jun-16 06:00N 34°39' E 135°26'0 0.0
2018-Jun-16 05:30N 34°39' E 135°26'0 0.0
2018-Jun-16 05:00N 34°39' E 135°26'0 0.0
2018-Jun-16 04:24N 34°39' E 135°26'0 0.0
2018-Jun-16 03:36N 34°39' E 135°26'0 0.1
2018-Jun-16 03:30N 34°39' E 135°26'0 0.0
2018-Jun-16 03:00N 34°39' E 135°26'0 0.0
2018-Jun-16 02:12N 34°39' E 135°26'0 0.0
2018-Jun-16 01:54N 34°39' E 135°26'0 0.0
2018-Jun-16 01:24N 34°39' E 135°26'0 0.0
2018-Jun-16 01:00N 34°39' E 135°26'0 0.0
2018-Jun-16 00:30N 34°39' E 135°26'0 0.0
2018-Jun-16 00:00N 34°39' E 135°26'0 0.0
2018-Jun-15 23:30N 34°39' E 135°26'0 0.0
2018-Jun-15 23:00N 34°39' E 135°26'0 0.0
2018-Jun-15 22:30N 34°39' E 135°26'1 3.0
2018-Jun-15 22:00N 34°39' E 135°24'3 4.1
2018-Jun-15 21:22N 34°37' E 135°22'0 0.1
2018-Jun-15 20:58N 34°37' E 135°22'0 0.0
2018-Jun-15 20:22N 34°37' E 135°22'0 0.0
2018-Jun-15 19:46N 34°37' E 135°22'0 0.0
2018-Jun-15 19:28N 34°37' E 135°22'0 0.0
2018-Jun-15 18:52N 34°37' E 135°22'0 0.0
2018-Jun-15 17:43N 34°37' E 135°22'0 0.0
2018-Jun-15 17:28N 34°37' E 135°22'0 0.0
2018-Jun-15 16:58N 34°37' E 135°22'0 0.1
2018-Jun-15 16:28N 34°37' E 135°22'0 0.0
2018-Jun-15 15:52N 34°37' E 135°22'0 0.0
2018-Jun-15 15:28N 34°37' E 135°22'0 0.1
2018-Jun-15 14:50N 34°37' E 135°22'1 3.0
2018-Jun-15 14:30N 34°36' E 135°21'612.0
2018-Jun-15 14:00N 34°32' E 135°15'815.4
2018-Jun-15 13:30N 34°27' E 135°09'816.0
2018-Jun-15 13:00N 34°21' E 135°02'816.3
2018-Jun-15 12:30N 34°13' E 134°59'815.5
2018-Jun-15 12:00N 34°06' E 134°57'816.0
2018-Jun-15 11:30N 33°58' E 134°55'815.9
2018-Jun-15 11:00N 33°50' E 134°54'915.5
2018-Jun-15 10:25N 33°43' E 134°47'68314.6
2018-Jun-13 11:32N 30°25' E 121°55'514.6
2018-Jun-13 11:10N 30°22' E 121°50'  

Dump ship's entire track history